createdAt,value
2019-05-16T00:00:37.215Z,1.50
2019-05-16T00:03:05.198Z,1.50
2019-05-16T00:05:33.134Z,1.70
2019-05-16T00:08:01.720Z,1.20
2019-05-16T00:10:29.692Z,1.43
2019-05-16T00:12:59.546Z,1.30
2019-05-16T00:15:28.788Z,1.70
2019-05-16T00:17:58.370Z,1.40
2019-05-16T00:20:28.362Z,1.20
2019-05-16T00:22:58.628Z,1.47
2019-05-16T00:25:25.908Z,1.87
2019-05-16T00:27:53.812Z,1.27
2019-05-16T00:30:21.664Z,1.47
2019-05-16T00:32:49.569Z,1.40
2019-05-16T00:35:18.227Z,1.40
2019-05-16T00:37:48.472Z,1.57
2019-05-16T00:40:18.573Z,1.57
2019-05-16T00:42:48.864Z,1.30
2019-05-16T00:45:15.535Z,1.70
2019-05-16T00:47:43.407Z,1.80
2019-05-16T00:50:11.509Z,1.30
2019-05-16T00:52:39.698Z,1.70
2019-05-16T00:55:09.610Z,1.70
2019-05-16T00:57:38.853Z,1.53
2019-05-16T01:00:08.306Z,1.50
2019-05-16T01:02:38.183Z,1.50
2019-05-16T01:05:08.262Z,1.50
2019-05-16T01:07:35.740Z,1.30
2019-05-16T01:10:03.599Z,1.60
2019-05-16T01:12:31.522Z,1.90
2019-05-16T01:14:59.335Z,1.43
2019-05-16T01:17:28.382Z,2.00
2019-05-16T01:19:57.874Z,1.70
2019-05-16T01:22:25.859Z,1.90
2019-05-16T01:24:53.715Z,1.53
2019-05-16T01:27:21.575Z,1.70
2019-05-16T01:29:49.463Z,2.20
2019-05-16T01:32:18.988Z,1.80
2019-05-16T01:34:48.292Z,1.70
2019-05-16T01:37:18.484Z,2.00
2019-05-16T01:39:48.269Z,1.90
2019-05-16T01:42:15.583Z,2.00
2019-05-16T01:44:43.448Z,1.80
2019-05-16T01:47:11.283Z,1.57
2019-05-16T01:49:39.148Z,1.70
2019-05-16T01:52:08.436Z,1.70
2019-05-16T01:54:38.678Z,1.47
2019-05-16T01:57:08.141Z,1.70
2019-05-16T01:59:37.925Z,1.90
2019-05-16T02:02:05.531Z,1.60
2019-05-16T02:04:33.370Z,2.20
2019-05-16T02:07:01.239Z,1.93
2019-05-16T02:09:29.072Z,1.73
2019-05-16T02:11:58.896Z,2.33
2019-05-16T02:14:28.325Z,1.57
2019-05-16T02:16:58.067Z,2.13
2019-05-16T02:19:27.874Z,1.70
2019-05-16T02:21:55.754Z,1.60
2019-05-16T02:24:24.356Z,1.77
2019-05-16T02:26:52.575Z,1.70
2019-05-16T02:29:20.685Z,2.07
2019-05-16T02:31:51.366Z,2.00
2019-05-16T02:34:21.473Z,2.00
2019-05-16T02:37:08.276Z,1.60
2019-05-16T02:39:20.937Z,2.07
2019-05-16T02:41:47.392Z,1.80
2019-05-16T02:44:15.262Z,2.27
2019-05-16T02:46:43.160Z,2.00
2019-05-16T02:49:11.714Z,1.80
2019-05-16T02:51:40.611Z,2.27
2019-05-16T02:54:10.964Z,1.70
2019-05-16T02:56:41.455Z,2.03
2019-05-16T02:59:11.664Z,1.50
2019-05-16T03:01:40.652Z,2.50
2019-05-16T03:04:07.248Z,2.10
2019-05-16T03:06:35.794Z,1.90
2019-05-16T03:09:05.591Z,1.73
2019-05-16T03:11:34.075Z,1.90
2019-05-16T03:14:03.634Z,2.20
2019-05-16T03:16:32.305Z,1.60
2019-05-16T03:19:01.734Z,2.03
2019-05-16T03:21:31.444Z,2.30
2019-05-16T03:24:00.879Z,2.20
2019-05-16T03:26:31.499Z,2.00
2019-05-16T03:29:00.996Z,2.27
2019-05-16T03:31:33.627Z,2.20
2019-05-16T03:34:01.437Z,1.87
2019-05-16T03:36:27.241Z,2.27
2019-05-16T03:38:55.120Z,2.20
2019-05-16T03:41:22.983Z,2.43
2019-05-16T03:43:50.958Z,2.13
2019-05-16T03:46:21.515Z,2.30
2019-05-16T03:48:51.553Z,2.43
2019-05-16T03:51:18.015Z,2.20
2019-05-16T03:53:46.022Z,2.10
2019-05-16T03:56:13.916Z,2.43
2019-05-16T03:58:42.002Z,1.90
2019-05-16T04:01:11.131Z,1.90
2019-05-16T04:03:41.321Z,2.20
2019-05-16T04:06:11.924Z,2.20
2019-05-16T04:08:41.222Z,2.03
2019-05-16T04:11:11.376Z,1.87
2019-05-16T04:13:40.829Z,2.20
2019-05-16T04:16:07.444Z,2.80
2019-05-16T04:18:35.345Z,2.17
2019-05-16T04:21:03.244Z,2.33
2019-05-16T04:23:31.673Z,2.13
2019-05-16T04:26:00.724Z,2.13
2019-05-16T04:28:31.783Z,2.20
2019-05-16T04:31:01.462Z,2.93
2019-05-16T04:33:30.807Z,2.10
2019-05-16T04:35:57.627Z,2.93
2019-05-16T04:38:41.017Z,2.10
2019-05-16T04:40:55.201Z,2.17
2019-05-16T04:43:25.298Z,2.27
2019-05-16T04:45:53.163Z,2.10
2019-05-16T04:48:22.302Z,2.47
2019-05-16T04:50:51.827Z,2.67
2019-05-16T04:53:21.130Z,2.13
2019-05-16T04:55:51.511Z,2.70
2019-05-16T04:58:23.294Z,2.27
2019-05-16T05:00:51.702Z,2.40
2019-05-16T05:03:20.900Z,2.60
2019-05-16T05:05:50.909Z,2.20
2019-05-16T05:08:17.678Z,2.37
2019-05-16T05:10:45.663Z,2.30
2019-05-16T05:13:13.605Z,2.70
2019-05-16T05:15:41.545Z,2.37
2019-05-16T05:18:10.206Z,2.70
2019-05-16T05:20:40.863Z,2.63
2019-05-16T05:23:09.857Z,2.17
2019-05-16T05:25:40.391Z,2.87
2019-05-16T05:28:09.873Z,2.80
2019-05-16T05:30:37.243Z,2.57
2019-05-16T05:33:05.290Z,2.93
2019-05-16T05:35:33.204Z,2.73
2019-05-16T05:38:01.178Z,3.27
2019-05-16T05:40:29.702Z,2.70
2019-05-16T05:42:59.833Z,3.00
2019-05-16T05:45:27.476Z,3.03
2019-05-16T05:47:55.382Z,2.70
2019-05-16T05:50:23.298Z,3.10
2019-05-16T05:52:51.368Z,2.87
2019-05-16T05:55:20.061Z,3.00
2019-05-16T05:57:50.447Z,2.77
2019-05-16T06:00:20.807Z,3.47
2019-05-16T06:02:47.864Z,3.30
2019-05-16T06:05:15.949Z,2.60
2019-05-16T06:07:43.972Z,3.20
2019-05-16T06:10:12.060Z,2.90
2019-05-16T06:12:41.305Z,3.17
2019-05-16T06:15:12.851Z,3.13
2019-05-16T06:17:40.216Z,3.20
2019-05-16T06:20:14.028Z,3.10
2019-05-16T06:22:40.154Z,2.80
2019-05-16T06:25:12.585Z,3.20
2019-05-16T06:27:37.338Z,3.10
2019-05-16T06:30:05.342Z,3.20
2019-05-16T06:32:33.368Z,2.97
2019-05-16T06:35:01.284Z,3.40
2019-05-16T06:37:30.950Z,2.80
2019-05-16T06:40:00.687Z,3.00
2019-05-16T06:42:29.957Z,3.07
2019-05-16T06:45:00.592Z,2.67
2019-05-16T06:47:30.333Z,3.03
2019-05-16T06:50:00.072Z,2.97
2019-05-16T06:52:27.189Z,2.27
2019-05-16T06:54:55.151Z,3.30
2019-05-16T06:57:22.995Z,3.20
2019-05-16T06:59:51.307Z,2.83
2019-05-16T07:02:27.800Z,3.53
2019-05-16T07:04:50.666Z,3.40
2019-05-16T07:07:20.484Z,3.10
2019-05-16T07:09:58.184Z,3.07
2019-05-16T07:12:20.121Z,2.60
2019-05-16T07:14:50.328Z,2.60
2019-05-16T07:17:17.278Z,3.00
2019-05-16T07:19:46.386Z,3.20
2019-05-16T07:22:14.355Z,3.00
2019-05-16T07:24:42.247Z,4.07
2019-05-16T07:27:12.403Z,3.40
2019-05-16T07:29:40.264Z,3.37
2019-05-16T07:32:08.698Z,3.30
2019-05-16T07:34:36.584Z,3.37
2019-05-16T07:37:04.812Z,2.83
2019-05-16T07:39:34.079Z,3.57
2019-05-16T07:42:02.001Z,2.90
2019-05-16T07:44:30.925Z,3.50
2019-05-16T07:47:00.962Z,3.07
2019-05-16T07:49:30.435Z,3.80
2019-05-16T07:52:00.669Z,3.63
2019-05-16T07:54:34.020Z,3.20
2019-05-16T07:57:11.792Z,3.40
2019-05-16T07:59:29.965Z,2.80
2019-05-16T08:02:00.362Z,3.87
2019-05-16T08:04:31.346Z,3.23
2019-05-16T08:07:00.605Z,2.63
2019-05-16T08:09:30.639Z,3.03
2019-05-16T08:11:58.627Z,3.30
2019-05-16T08:14:26.516Z,3.23
2019-05-16T08:16:54.388Z,2.90
2019-05-16T08:19:25.143Z,3.70
2019-05-16T08:21:54.877Z,3.00
2019-05-16T08:24:23.545Z,2.80
2019-05-16T08:26:51.677Z,2.80
2019-05-16T08:29:22.016Z,3.10
2019-05-16T08:31:52.820Z,3.00
2019-05-16T08:34:20.792Z,2.40
2019-05-16T08:36:51.904Z,2.73
2019-05-16T08:39:21.411Z,2.87
2019-05-16T08:41:52.073Z,2.93
2019-05-16T08:44:23.510Z,3.13
2019-05-16T08:49:22.089Z,3.30
2019-05-16T08:50:11.857Z,2.70
2019-05-16T08:51:52.869Z,3.57
2019-05-16T08:54:21.339Z,3.00
2019-05-16T08:59:21.549Z,3.00
2019-05-16T09:01:56.801Z,4.10
2019-05-16T09:04:23.858Z,3.10
2019-05-16T09:06:52.345Z,3.13
2019-05-16T09:09:42.661Z,2.90
2019-05-16T09:10:30.767Z,3.47
2019-05-16T09:11:48.812Z,3.40
2019-05-16T09:14:17.337Z,3.07
2019-05-16T09:16:47.859Z,3.17
2019-05-16T09:19:16.972Z,3.27
2019-05-16T09:21:47.494Z,2.90
2019-05-16T09:24:17.917Z,2.77
2019-05-16T09:26:47.392Z,3.10
2019-05-16T09:29:16.766Z,2.73
2019-05-16T09:32:04.489Z,3.30
2019-05-16T09:34:17.276Z,3.60
2019-05-16T09:36:44.121Z,3.13
2019-05-16T09:39:11.992Z,3.00
2019-05-16T09:41:54.623Z,2.50
2019-05-16T09:44:09.583Z,2.20
2019-05-16T09:46:37.729Z,3.00
2019-05-16T09:49:16.902Z,2.50
2019-05-16T09:51:37.613Z,2.80
2019-05-16T09:54:07.212Z,2.60
2019-05-16T09:56:36.818Z,2.53
2019-05-16T09:59:06.742Z,2.30
2019-05-16T10:01:33.963Z,3.07
2019-05-16T10:04:01.893Z,2.40
2019-05-16T10:06:32.427Z,2.60
2019-05-16T10:09:00.882Z,2.93
2019-05-16T10:11:31.139Z,2.60
2019-05-16T10:13:58.999Z,2.47
2019-05-16T10:16:27.544Z,2.40
2019-05-16T10:18:56.785Z,3.20
2019-05-16T10:21:26.980Z,2.33
2019-05-16T10:23:56.407Z,2.67
2019-05-16T10:26:27.456Z,3.00
2019-05-16T10:28:53.822Z,3.40
2019-05-16T10:31:21.822Z,3.10
2019-05-16T10:33:49.769Z,2.87
2019-05-16T10:36:21.466Z,2.57
2019-05-16T10:38:48.392Z,2.90
2019-05-16T10:41:16.561Z,2.63
2019-05-16T10:43:44.394Z,3.00
2019-05-16T10:46:12.305Z,2.33
2019-05-16T10:48:40.275Z,2.00
2019-05-16T10:51:08.147Z,2.80
2019-05-16T10:54:00.527Z,2.60
2019-05-16T10:56:07.752Z,1.93
2019-05-16T10:58:47.142Z,2.20
2019-05-16T11:01:19.428Z,2.80
2019-05-16T11:03:35.103Z,3.10
2019-05-16T11:06:08.317Z,2.93
2019-05-16T11:08:32.727Z,2.63
2019-05-16T11:11:00.590Z,2.80
2019-05-16T11:13:28.611Z,3.50
2019-05-16T11:15:56.555Z,2.87
2019-05-16T11:18:26.899Z,3.40
2019-05-16T11:20:54.095Z,2.77
2019-05-16T11:23:23.721Z,2.70
2019-05-16T11:25:55.296Z,2.20
2019-05-16T11:28:22.367Z,2.33
2019-05-16T11:30:50.460Z,2.37
2019-05-16T11:33:18.622Z,2.40
2019-05-16T11:35:47.646Z,2.77
2019-05-16T11:38:17.843Z,2.70
2019-05-16T11:40:47.542Z,3.20
2019-05-16T11:43:19.127Z,3.07
2019-05-16T11:45:46.870Z,3.00
2019-05-16T11:48:17.159Z,2.80
2019-05-16T11:50:48.062Z,3.13
2019-05-16T11:53:17.440Z,2.80
2019-05-16T11:55:54.417Z,2.93
2019-05-16T11:58:17.878Z,2.90
2019-05-16T12:00:47.901Z,2.60
2019-05-16T12:03:16.951Z,2.73
2019-05-16T12:05:47.670Z,2.53
2019-05-16T12:08:14.237Z,2.83
2019-05-16T12:10:42.309Z,2.53
2019-05-16T12:13:24.280Z,2.40
2019-05-16T12:15:39.913Z,2.07
2019-05-16T12:18:08.770Z,2.20
2019-05-16T12:20:37.789Z,2.43
2019-05-16T12:23:07.934Z,2.73
2019-05-16T12:25:36.876Z,3.03
2019-05-16T12:28:07.868Z,3.10
2019-05-16T12:30:34.539Z,2.70
2019-05-16T12:33:02.504Z,2.20
2019-05-16T12:35:30.527Z,2.10
2019-05-16T12:37:58.595Z,2.40
2019-05-16T12:40:26.870Z,1.67
2019-05-16T12:42:57.272Z,2.17
2019-05-16T12:45:27.559Z,2.53
2019-05-16T12:47:57.238Z,2.17
2019-05-16T12:50:28.184Z,2.40
2019-05-16T12:52:56.811Z,1.97
2019-05-16T12:55:24.226Z,2.50
2019-05-16T12:57:58.846Z,2.40
2019-05-16T13:00:21.969Z,2.40
2019-05-16T13:02:49.864Z,1.93
2019-05-16T13:05:17.989Z,2.20
2019-05-16T13:07:47.638Z,1.70
2019-05-16T13:10:17.300Z,2.00
2019-05-16T13:12:45.349Z,2.30
2019-05-16T13:15:13.311Z,2.27
2019-05-16T13:17:41.260Z,2.07
2019-05-16T13:20:09.309Z,2.30
2019-05-16T13:22:38.398Z,2.50
2019-05-16T13:25:07.520Z,3.17
2019-05-16T13:27:37.264Z,2.40
2019-05-16T13:30:07.291Z,2.70
2019-05-16T13:32:37.404Z,2.70
2019-05-16T13:35:22.958Z,2.53
2019-05-16T13:37:51.809Z,2.63
2019-05-16T13:40:19.934Z,3.90
2019-05-16T13:42:48.226Z,3.10
2019-05-16T13:45:17.943Z,2.63
2019-05-16T13:47:48.669Z,2.63
2019-05-16T13:50:16.852Z,2.40
2019-05-16T13:52:47.794Z,3.17
2019-05-16T13:55:16.737Z,2.50
2019-05-16T13:57:44.286Z,3.07
2019-05-16T14:00:12.315Z,2.50
2019-05-16T14:02:40.634Z,2.53
2019-05-16T14:05:08.844Z,2.20
2019-05-16T14:07:37.676Z,2.30
2019-05-16T14:10:05.899Z,2.30
2019-05-16T14:12:36.492Z,2.50
2019-05-16T14:15:03.843Z,2.50
2019-05-16T14:17:31.822Z,2.53
2019-05-16T14:19:59.736Z,2.50
2019-05-16T14:22:27.930Z,2.80
2019-05-16T14:24:57.034Z,2.40
2019-05-16T14:27:26.843Z,2.47
2019-05-16T14:29:57.592Z,2.50
2019-05-16T14:32:24.503Z,2.47
2019-05-16T14:34:52.403Z,2.40
2019-05-16T14:37:20.385Z,2.40
2019-05-16T14:39:48.902Z,2.20
2019-05-16T14:42:17.796Z,2.77
2019-05-16T14:45:03.843Z,2.90
2019-05-16T14:47:17.720Z,2.50
2019-05-16T14:49:48.537Z,2.60
2019-05-16T14:52:14.900Z,3.10
2019-05-16T14:54:42.781Z,2.40
2019-05-16T14:57:10.752Z,2.70
2019-05-16T14:59:38.696Z,2.40
2019-05-16T15:02:07.125Z,2.40
2019-05-16T15:04:37.435Z,2.47
2019-05-16T15:07:07.029Z,2.43
2019-05-16T15:09:34.503Z,2.57
2019-05-16T15:12:02.372Z,2.67
2019-05-16T15:14:30.284Z,2.37
2019-05-16T15:16:58.151Z,2.87
2019-05-16T15:19:26.071Z,2.63
2019-05-16T15:21:56.746Z,2.70
2019-05-16T15:24:23.598Z,3.20
2019-05-16T15:26:51.602Z,2.43
2019-05-16T15:29:19.623Z,2.10
2019-05-16T15:31:47.489Z,3.10
2019-05-16T15:34:15.404Z,2.90
2019-05-16T15:36:43.256Z,2.80
2019-05-16T15:39:11.170Z,2.07
2019-05-16T15:41:39.055Z,2.73
2019-05-16T15:44:07.758Z,2.60
2019-05-16T15:46:37.027Z,2.43
2019-05-16T15:49:09.633Z,2.73
2019-05-16T15:51:36.867Z,2.70
2019-05-16T15:54:06.649Z,2.40
2019-05-16T15:56:34.324Z,2.27
2019-05-16T15:59:02.331Z,2.10
2019-05-16T16:01:30.295Z,2.70
2019-05-16T16:03:58.211Z,2.73
2019-05-16T16:06:27.489Z,2.30
2019-05-16T16:08:55.621Z,2.60
2019-05-16T16:11:23.596Z,2.70
2019-05-16T16:13:51.508Z,2.67
2019-05-16T16:16:19.786Z,1.97
2019-05-16T16:18:47.686Z,2.40
2019-05-16T16:21:16.678Z,2.30
2019-05-16T16:23:47.282Z,2.37
2019-05-16T16:26:17.503Z,2.47
2019-05-16T16:28:44.311Z,2.07
2019-05-16T16:31:12.386Z,2.77
2019-05-16T16:33:40.753Z,2.67
2019-05-16T16:36:09.051Z,2.20
2019-05-16T16:38:37.265Z,2.40
2019-05-16T16:41:07.778Z,2.50
2019-05-16T16:43:37.277Z,2.97
2019-05-16T16:46:10.297Z,2.60
2019-05-16T16:48:34.546Z,2.50
2019-05-16T16:51:02.631Z,2.53
2019-05-16T16:53:30.713Z,2.97
2019-05-16T16:55:58.725Z,2.57
2019-05-16T16:58:26.841Z,2.47
2019-05-16T17:00:54.939Z,2.67
2019-05-16T17:03:22.928Z,2.57
2019-05-16T17:05:50.950Z,1.97
2019-05-16T17:08:18.853Z,2.03
2019-05-16T17:10:47.719Z,2.63
2019-05-16T17:13:16.984Z,1.87
2019-05-16T17:15:47.107Z,2.63
2019-05-16T17:18:17.183Z,2.00
2019-05-16T17:20:44.483Z,2.27
2019-05-16T17:23:12.584Z,2.07
2019-05-16T17:25:40.643Z,2.10
2019-05-16T17:28:08.507Z,1.70
2019-05-16T17:30:37.037Z,1.90
2019-05-16T17:33:07.286Z,2.00
2019-05-16T17:35:38.578Z,1.87
2019-05-16T17:38:06.775Z,1.63
2019-05-16T17:40:37.458Z,2.30
2019-05-16T17:43:04.093Z,2.17
2019-05-16T17:45:32.057Z,2.03
2019-05-16T17:47:59.994Z,2.13
2019-05-16T17:50:27.851Z,2.13
2019-05-16T17:52:57.819Z,2.37
2019-05-16T17:55:26.969Z,2.10
2019-05-16T17:57:57.035Z,1.97
2019-05-16T18:00:28.740Z,2.20
2019-05-16T18:02:56.894Z,2.50
2019-05-16T18:05:24.194Z,1.90
2019-05-16T18:07:52.261Z,2.50
2019-05-16T18:10:21.471Z,2.97
2019-05-16T18:12:49.422Z,2.97
2019-05-16T18:15:20.524Z,2.27
2019-05-16T18:17:48.574Z,2.43
2019-05-16T18:20:16.827Z,3.17
2019-05-16T18:22:47.134Z,2.73
2019-05-16T18:25:16.399Z,2.77
2019-05-16T18:27:44.639Z,2.80
2019-05-16T18:30:12.752Z,3.10
2019-05-16T18:32:40.667Z,3.43
2019-05-16T18:35:10.277Z,3.20
2019-05-16T18:37:38.181Z,2.90
2019-05-16T18:40:07.184Z,3.23
2019-05-16T18:42:36.936Z,2.60
2019-05-16T18:45:07.283Z,3.20
2019-05-16T18:47:37.587Z,2.63
2019-05-16T18:50:06.691Z,2.20
2019-05-16T18:52:37.511Z,2.40
2019-05-16T18:55:04.875Z,2.47
2019-05-16T18:57:32.953Z,2.60
2019-05-16T19:00:01.221Z,2.87
2019-05-16T19:02:29.345Z,3.10
2019-05-16T19:04:57.890Z,3.40
2019-05-16T19:07:27.330Z,4.57
2019-05-16T19:09:55.398Z,2.40
2019-05-16T19:12:23.603Z,3.07
2019-05-16T19:14:51.583Z,2.50
2019-05-16T19:17:24.125Z,2.30
2019-05-16T19:19:49.206Z,2.40
2019-05-16T19:22:17.203Z,2.80
2019-05-16T19:24:46.435Z,2.83
2019-05-16T19:27:14.543Z,3.10
2019-05-16T19:29:42.679Z,2.27
2019-05-16T19:32:11.081Z,2.40
2019-05-16T19:34:39.030Z,2.73
2019-05-16T19:37:07.118Z,2.83
2019-05-16T19:39:37.054Z,2.77
2019-05-16T19:42:06.471Z,2.30
2019-05-16T19:44:36.890Z,2.57
2019-05-16T19:47:06.810Z,2.60
2019-05-16T19:49:33.936Z,2.43
2019-05-16T19:52:01.881Z,2.90
2019-05-16T19:54:29.806Z,2.70
2019-05-16T19:56:57.956Z,3.10
2019-05-16T19:59:27.230Z,2.80
2019-05-16T20:01:56.971Z,3.03
2019-05-16T20:04:27.184Z,3.53
2019-05-16T20:06:56.575Z,3.00
2019-05-16T20:09:26.719Z,3.20
2019-05-16T20:11:53.835Z,3.30
2019-05-16T20:14:21.831Z,3.10
2019-05-16T20:16:50.002Z,2.80
2019-05-16T20:19:17.934Z,3.13
2019-05-16T20:21:47.617Z,2.97
2019-05-16T20:24:16.689Z,3.43
2019-05-16T20:26:46.449Z,3.40
2019-05-16T20:29:16.899Z,3.27
2019-05-16T20:31:43.997Z,3.43
2019-05-16T20:34:11.913Z,3.30
2019-05-16T20:36:39.905Z,3.40
2019-05-16T20:39:08.543Z,3.33
2019-05-16T20:41:36.848Z,3.63
2019-05-16T20:44:06.604Z,3.67
2019-05-16T20:46:35.296Z,3.40
2019-05-16T20:49:03.248Z,3.17
2019-05-16T20:51:31.125Z,3.30
2019-05-16T20:53:59.192Z,3.50
2019-05-16T20:56:27.819Z,3.13
2019-05-16T20:58:57.448Z,3.43
2019-05-16T21:01:26.571Z,3.40
2019-05-16T21:03:54.642Z,3.73
2019-05-16T21:06:22.584Z,3.33
2019-05-16T21:08:50.491Z,4.03
2019-05-16T21:11:18.436Z,3.87
2019-05-16T21:13:48.599Z,4.10
2019-05-16T21:16:16.372Z,3.40
2019-05-16T21:18:46.842Z,3.60
2019-05-16T21:21:19.008Z,3.60
2019-05-16T21:23:43.647Z,3.47
2019-05-16T21:26:11.591Z,4.47
2019-05-16T21:28:39.516Z,3.20
2019-05-16T21:31:07.637Z,3.57
2019-05-16T21:33:36.536Z,3.50
2019-05-16T21:36:04.507Z,3.77
2019-05-16T21:38:32.438Z,4.20
2019-05-16T21:41:00.306Z,3.90
2019-05-16T21:43:28.151Z,3.90
2019-05-16T21:45:56.662Z,3.43
2019-05-16T21:48:27.461Z,3.73
2019-05-16T21:50:54.413Z,3.80
2019-05-16T21:53:22.295Z,3.60
2019-05-16T21:55:50.197Z,4.73
2019-05-16T21:58:18.092Z,3.70
2019-05-16T22:00:47.636Z,4.30
2019-05-16T22:03:15.708Z,3.87
2019-05-16T22:05:43.600Z,3.40
2019-05-16T22:08:11.959Z,3.63
2019-05-16T22:10:40.092Z,3.80
2019-05-16T22:13:07.998Z,3.70
2019-05-16T22:15:36.743Z,3.80
2019-05-16T22:18:07.012Z,4.17
2019-05-16T22:20:34.592Z,3.80
2019-05-16T22:23:07.558Z,3.33
2019-05-16T22:25:35.498Z,3.50
2019-05-16T22:28:03.642Z,4.63
2019-05-16T22:30:32.377Z,4.37
2019-05-16T22:33:00.257Z,4.60
2019-05-16T22:35:28.143Z,3.40
2019-05-16T22:37:59.214Z,4.40
2019-05-16T22:40:26.746Z,4.50
2019-05-16T22:42:57.372Z,4.90
2019-05-16T22:45:26.623Z,4.97
2019-05-16T22:47:54.047Z,4.20
2019-05-16T22:50:21.983Z,4.10
2019-05-16T22:52:50.013Z,4.87
2019-05-16T22:55:18.973Z,5.20
2019-05-16T22:57:47.419Z,4.70
2019-05-16T23:00:22.656Z,4.87
2019-05-16T23:02:50.641Z,4.50
2019-05-16T23:05:18.552Z,4.43
2019-05-16T23:07:48.426Z,5.40
2019-05-16T23:10:16.699Z,4.37
2019-05-16T23:12:44.749Z,5.00
2019-05-16T23:15:12.748Z,4.10
2019-05-16T23:17:40.735Z,4.60
2019-05-16T23:20:08.622Z,4.40
2019-05-16T23:22:36.884Z,4.67
2019-05-16T23:25:06.592Z,4.87
2019-05-16T23:27:36.726Z,5.13
2019-05-16T23:30:07.443Z,5.10
2019-05-16T23:32:36.477Z,5.47
2019-05-16T23:35:06.658Z,5.20
2019-05-16T23:37:36.790Z,6.07
2019-05-16T23:40:06.193Z,5.60
2019-05-16T23:42:33.722Z,5.03
2019-05-16T23:45:01.794Z,5.27
2019-05-16T23:47:29.744Z,5.10
2019-05-16T23:49:57.806Z,5.00
2019-05-16T23:52:27.346Z,5.40
2019-05-16T23:54:56.998Z,5.60
2019-05-16T23:57:26.586Z,5.00
2019-05-16T23:59:56.795Z,4.67
